sensor_id;sensor_type;location;lat;lon;timestamp;P1;durP1;ratioP1;P2;durP2;ratioP2
16075;SDS011;8142;48.242;11.644;2022-11-04T00:01:58;7.90;;;5.60;;
16075;SDS011;8142;48.242;11.644;2022-11-04T00:04:27;7.20;;;5.27;;
16075;SDS011;8142;48.242;11.644;2022-11-04T00:06:54;7.13;;;5.10;;
16075;SDS011;8142;48.242;11.644;2022-11-04T00:09:29;6.60;;;5.27;;
16075;SDS011;8142;48.242;11.644;2022-11-04T00:11:55;9.60;;;5.40;;
16075;SDS011;8142;48.242;11.644;2022-11-04T00:14:41;7.30;;;5.20;;
16075;SDS011;8142;48.242;11.644;2022-11-04T00:17:09;8.73;;;5.67;;
16075;SDS011;8142;48.242;11.644;2022-11-04T00:19:49;7.17;;;5.00;;
16075;SDS011;8142;48.242;11.644;2022-11-04T00:22:39;8.17;;;4.67;;
16075;SDS011;8142;48.242;11.644;2022-11-04T00:25:24;5.87;;;4.73;;
16075;SDS011;8142;48.242;11.644;2022-11-04T00:30:56;4.60;;;3.77;;
16075;SDS011;8142;48.242;11.644;2022-11-04T00:33:42;6.10;;;3.80;;
16075;SDS011;8142;48.242;11.644;2022-11-04T00:36:08;5.87;;;3.60;;
16075;SDS011;8142;48.242;11.644;2022-11-04T00:38:34;5.00;;;3.63;;
16075;SDS011;8142;48.242;11.644;2022-11-04T00:41:00;5.70;;;4.00;;
16075;SDS011;8142;48.242;11.644;2022-11-04T00:43:26;4.90;;;3.40;;
16075;SDS011;8142;48.242;11.644;2022-11-04T00:45:52;5.10;;;3.30;;
16075;SDS011;8142;48.242;11.644;2022-11-04T00:48:17;4.03;;;3.20;;
16075;SDS011;8142;48.242;11.644;2022-11-04T00:50:43;3.37;;;2.87;;
16075;SDS011;8142;48.242;11.644;2022-11-04T00:53:09;3.93;;;2.70;;
16075;SDS011;8142;48.242;11.644;2022-11-04T00:55:35;7.10;;;2.70;;
16075;SDS011;8142;48.242;11.644;2022-11-04T00:58:01;3.07;;;2.30;;
16075;SDS011;8142;48.242;11.644;2022-11-04T01:00:26;2.80;;;2.50;;
16075;SDS011;8142;48.242;11.644;2022-11-04T01:02:54;5.50;;;2.30;;
16075;SDS011;8142;48.242;11.644;2022-11-04T01:05:20;2.67;;;2.30;;
16075;SDS011;8142;48.242;11.644;2022-11-04T01:07:46;2.63;;;2.20;;
16075;SDS011;8142;48.242;11.644;2022-11-04T01:10:12;2.40;;;2.10;;
16075;SDS011;8142;48.242;11.644;2022-11-04T01:12:37;2.53;;;2.03;;
16075;SDS011;8142;48.242;11.644;2022-11-04T01:15:03;3.20;;;2.10;;
16075;SDS011;8142;48.242;11.644;2022-11-04T01:17:30;2.70;;;2.00;;
16075;SDS011;8142;48.242;11.644;2022-11-04T01:19:55;4.43;;;2.10;;
16075;SDS011;8142;48.242;11.644;2022-11-04T01:22:21;3.57;;;2.10;;
16075;SDS011;8142;48.242;11.644;2022-11-04T01:24:47;3.00;;;2.13;;
16075;SDS011;8142;48.242;11.644;2022-11-04T01:27:13;2.83;;;2.20;;
16075;SDS011;8142;48.242;11.644;2022-11-04T01:29:39;3.60;;;2.10;;
16075;SDS011;8142;48.242;11.644;2022-11-04T01:32:04;2.40;;;2.10;;
16075;SDS011;8142;48.242;11.644;2022-11-04T01:34:30;2.87;;;2.07;;
16075;SDS011;8142;48.242;11.644;2022-11-04T01:36:56;3.17;;;2.60;;
16075;SDS011;8142;48.242;11.644;2022-11-04T01:39:22;3.47;;;2.50;;
16075;SDS011;8142;48.242;11.644;2022-11-04T01:41:48;4.33;;;2.40;;
16075;SDS011;8142;48.242;11.644;2022-11-04T01:47:18;2.43;;;2.20;;
16075;SDS011;8142;48.242;11.644;2022-11-04T01:49:58;5.43;;;2.50;;
16075;SDS011;8142;48.242;11.644;2022-11-04T01:52:46;3.70;;;2.33;;
16075;SDS011;8142;48.242;11.644;2022-11-04T01:55:20;2.17;;;1.93;;
16075;SDS011;8142;48.242;11.644;2022-11-04T01:57:53;3.17;;;2.13;;
16075;SDS011;8142;48.242;11.644;2022-11-04T02:00:22;3.43;;;2.00;;
16075;SDS011;8142;48.242;11.644;2022-11-04T02:05:22;2.20;;;1.90;;
16075;SDS011;8142;48.242;11.644;2022-11-04T02:07:48;2.40;;;1.90;;
16075;SDS011;8142;48.242;11.644;2022-11-04T02:10:17;3.23;;;1.80;;
16075;SDS011;8142;48.242;11.644;2022-11-04T02:12:47;2.60;;;1.80;;
16075;SDS011;8142;48.242;11.644;2022-11-04T02:15:24;2.07;;;1.63;;
16075;SDS011;8142;48.242;11.644;2022-11-04T02:20:53;2.10;;;1.70;;
16075;SDS011;8142;48.242;11.644;2022-11-04T02:23:28;2.23;;;1.80;;
16075;SDS011;8142;48.242;11.644;2022-11-04T02:32:18;1.53;;;1.40;;
16075;SDS011;8142;48.242;11.644;2022-11-04T02:34:58;1.80;;;1.43;;
16075;SDS011;8142;48.242;11.644;2022-11-04T02:42:50;1.53;;;1.43;;
16075;SDS011;8142;48.242;11.644;2022-11-04T02:45:37;1.60;;;1.50;;
16075;SDS011;8142;48.242;11.644;2022-11-04T02:48:27;1.77;;;1.40;;
16075;SDS011;8142;48.242;11.644;2022-11-04T02:51:06;2.27;;;1.30;;
16075;SDS011;8142;48.242;11.644;2022-11-04T02:54:30;1.57;;;1.20;;
16075;SDS011;8142;48.242;11.644;2022-11-04T02:56:49;2.07;;;1.30;;
16075;SDS011;8142;48.242;11.644;2022-11-04T02:59:27;1.47;;;1.10;;
16075;SDS011;8142;48.242;11.644;2022-11-04T03:02:03;1.30;;;1.20;;
16075;SDS011;8142;48.242;11.644;2022-11-04T03:04:36;1.97;;;1.20;;
16075;SDS011;8142;48.242;11.644;2022-11-04T03:07:06;1.50;;;1.10;;
16075;SDS011;8142;48.242;11.644;2022-11-04T03:09:35;1.27;;;1.17;;
16075;SDS011;8142;48.242;11.644;2022-11-04T03:12:08;1.03;;;1.00;;
16075;SDS011;8142;48.242;11.644;2022-11-04T03:14:40;1.20;;;1.10;;
16075;SDS011;8142;48.242;11.644;2022-11-04T03:17:14;1.07;;;1.00;;
16075;SDS011;8142;48.242;11.644;2022-11-04T03:19:57;2.80;;;1.00;;
16075;SDS011;8142;48.242;11.644;2022-11-04T03:22:25;1.33;;;1.10;;
16075;SDS011;8142;48.242;11.644;2022-11-04T03:24:57;1.30;;;1.20;;
16075;SDS011;8142;48.242;11.644;2022-11-04T03:27:41;0.87;;;0.87;;
16075;SDS011;8142;48.242;11.644;2022-11-04T03:30:17;1.20;;;1.10;;
16075;SDS011;8142;48.242;11.644;2022-11-04T03:32:55;0.80;;;0.80;;
16075;SDS011;8142;48.242;11.644;2022-11-04T03:35:28;1.80;;;0.90;;
16075;SDS011;8142;48.242;11.644;2022-11-04T03:37:55;0.97;;;0.90;;
16075;SDS011;8142;48.242;11.644;2022-11-04T03:40:22;1.23;;;1.10;;
16075;SDS011;8142;48.242;11.644;2022-11-04T03:42:58;0.87;;;0.87;;
16075;SDS011;8142;48.242;11.644;2022-11-04T03:45:29;1.10;;;1.00;;
16075;SDS011;8142;48.242;11.644;2022-11-04T03:47:55;1.23;;;0.80;;
16075;SDS011;8142;48.242;11.644;2022-11-04T03:52:55;0.90;;;0.90;;
16075;SDS011;8142;48.242;11.644;2022-11-04T03:55:23;0.90;;;0.90;;
16075;SDS011;8142;48.242;11.644;2022-11-04T03:58:11;4.30;;;0.97;;
16075;SDS011;8142;48.242;11.644;2022-11-04T04:00:44;0.80;;;0.80;;
16075;SDS011;8142;48.242;11.644;2022-11-04T04:03:15;0.80;;;0.80;;
16075;SDS011;8142;48.242;11.644;2022-11-04T04:05:52;1.03;;;0.60;;
16075;SDS011;8142;48.242;11.644;2022-11-04T04:11:17;0.80;;;0.80;;
16075;SDS011;8142;48.242;11.644;2022-11-04T04:13:49;0.87;;;0.87;;
16075;SDS011;8142;48.242;11.644;2022-11-04T04:16:25;0.67;;;0.67;;
16075;SDS011;8142;48.242;11.644;2022-11-04T04:18:54;1.60;;;0.80;;
16075;SDS011;8142;48.242;11.644;2022-11-04T04:21:28;0.83;;;0.80;;
16075;SDS011;8142;48.242;11.644;2022-11-04T04:23:59;1.00;;;0.80;;
16075;SDS011;8142;48.242;11.644;2022-11-04T04:26:47;0.67;;;0.67;;
16075;SDS011;8142;48.242;11.644;2022-11-04T04:29:33;0.70;;;0.70;;
16075;SDS011;8142;48.242;11.644;2022-11-04T04:32:00;0.77;;;0.77;;
16075;SDS011;8142;48.242;11.644;2022-11-04T04:34:29;0.73;;;0.70;;
16075;SDS011;8142;48.242;11.644;2022-11-04T04:39:46;0.77;;;0.77;;
16075;SDS011;8142;48.242;11.644;2022-11-04T04:42:34;1.23;;;0.73;;
16075;SDS011;8142;48.242;11.644;2022-11-04T04:45:28;1.67;;;0.83;;
16075;SDS011;8142;48.242;11.644;2022-11-04T04:47:56;1.07;;;0.77;;
16075;SDS011;8142;48.242;11.644;2022-11-04T04:50:24;1.03;;;0.90;;
16075;SDS011;8142;48.242;11.644;2022-11-04T04:52:53;0.83;;;0.80;;
16075;SDS011;8142;48.242;11.644;2022-11-04T04:55:21;0.50;;;0.50;;
16075;SDS011;8142;48.242;11.644;2022-11-04T04:57:47;1.50;;;0.70;;
16075;SDS011;8142;48.242;11.644;2022-11-04T05:00:15;1.10;;;1.00;;
16075;SDS011;8142;48.242;11.644;2022-11-04T05:02:43;0.70;;;0.70;;
16075;SDS011;8142;48.242;11.644;2022-11-04T05:05:09;0.70;;;0.70;;
16075;SDS011;8142;48.242;11.644;2022-11-04T05:07:37;0.60;;;0.60;;
16075;SDS011;8142;48.242;11.644;2022-11-04T05:10:04;1.20;;;0.70;;
16075;SDS011;8142;48.242;11.644;2022-11-04T05:12:33;1.20;;;0.90;;
16075;SDS011;8142;48.242;11.644;2022-11-04T05:15:21;1.23;;;0.80;;
16075;SDS011;8142;48.242;11.644;2022-11-04T05:17:52;0.60;;;0.60;;
16075;SDS011;8142;48.242;11.644;2022-11-04T05:20:22;0.80;;;0.80;;
16075;SDS011;8142;48.242;11.644;2022-11-04T05:22:48;0.70;;;0.70;;
16075;SDS011;8142;48.242;11.644;2022-11-04T05:25:14;1.27;;;0.80;;
16075;SDS011;8142;48.242;11.644;2022-11-04T05:27:40;1.30;;;0.80;;
16075;SDS011;8142;48.242;11.644;2022-11-04T05:30:06;1.87;;;0.70;;
16075;SDS011;8142;48.242;11.644;2022-11-04T05:32:33;1.03;;;0.80;;
16075;SDS011;8142;48.242;11.644;2022-11-04T05:34:59;1.10;;;0.83;;
16075;SDS011;8142;48.242;11.644;2022-11-04T05:37:25;1.67;;;0.90;;
16075;SDS011;8142;48.242;11.644;2022-11-04T05:39:51;0.80;;;0.80;;
16075;SDS011;8142;48.242;11.644;2022-11-04T05:42:17;0.80;;;0.80;;
16075;SDS011;8142;48.242;11.644;2022-11-04T05:44:43;1.03;;;0.90;;
16075;SDS011;8142;48.242;11.644;2022-11-04T05:47:09;0.70;;;0.70;;
16075;SDS011;8142;48.242;11.644;2022-11-04T05:49:34;0.70;;;0.70;;
16075;SDS011;8142;48.242;11.644;2022-11-04T05:52:00;0.63;;;0.63;;
16075;SDS011;8142;48.242;11.644;2022-11-04T05:54:26;0.83;;;0.83;;
16075;SDS011;8142;48.242;11.644;2022-11-04T05:56:52;1.00;;;0.70;;
16075;SDS011;8142;48.242;11.644;2022-11-04T05:59:18;1.27;;;0.77;;
16075;SDS011;8142;48.242;11.644;2022-11-04T06:01:44;0.87;;;0.73;;
16075;SDS011;8142;48.242;11.644;2022-11-04T06:04:12;0.80;;;0.80;;
16075;SDS011;8142;48.242;11.644;2022-11-04T06:06:40;1.03;;;0.80;;
16075;SDS011;8142;48.242;11.644;2022-11-04T06:09:06;1.17;;;0.97;;
16075;SDS011;8142;48.242;11.644;2022-11-04T06:11:32;0.90;;;0.90;;
16075;SDS011;8142;48.242;11.644;2022-11-04T06:13:58;3.70;;;1.00;;
16075;SDS011;8142;48.242;11.644;2022-11-04T06:16:24;1.50;;;0.90;;
16075;SDS011;8142;48.242;11.644;2022-11-04T06:18:51;0.90;;;0.90;;
16075;SDS011;8142;48.242;11.644;2022-11-04T06:23:56;2.00;;;0.90;;
16075;SDS011;8142;48.242;11.644;2022-11-04T06:26:26;1.90;;;0.67;;
16075;SDS011;8142;48.242;11.644;2022-11-04T06:28:53;0.83;;;0.77;;
16075;SDS011;8142;48.242;11.644;2022-11-04T06:31:19;2.37;;;0.93;;
16075;SDS011;8142;48.242;11.644;2022-11-04T06:33:45;1.73;;;0.90;;
16075;SDS011;8142;48.242;11.644;2022-11-04T06:36:12;1.03;;;0.97;;
16075;SDS011;8142;48.242;11.644;2022-11-04T06:38:39;1.83;;;1.07;;
16075;SDS011;8142;48.242;11.644;2022-11-04T06:41:06;2.30;;;1.00;;
16075;SDS011;8142;48.242;11.644;2022-11-04T06:43:35;1.37;;;1.00;;
16075;SDS011;8142;48.242;11.644;2022-11-04T06:46:01;1.90;;;1.10;;
16075;SDS011;8142;48.242;11.644;2022-11-04T06:48:27;1.80;;;0.80;;
16075;SDS011;8142;48.242;11.644;2022-11-04T06:50:55;1.70;;;1.00;;
16075;SDS011;8142;48.242;11.644;2022-11-04T06:53:22;2.23;;;1.07;;
16075;SDS011;8142;48.242;11.644;2022-11-04T06:55:49;1.73;;;1.20;;
16075;SDS011;8142;48.242;11.644;2022-11-04T06:58:17;1.80;;;1.10;;
16075;SDS011;8142;48.242;11.644;2022-11-04T07:00:43;2.50;;;1.13;;
16075;SDS011;8142;48.242;11.644;2022-11-04T07:03:14;1.43;;;0.90;;
16075;SDS011;8142;48.242;11.644;2022-11-04T07:05:40;3.23;;;1.10;;
16075;SDS011;8142;48.242;11.644;2022-11-04T07:08:06;2.60;;;1.20;;
16075;SDS011;8142;48.242;11.644;2022-11-04T07:10:32;1.63;;;1.07;;
16075;SDS011;8142;48.242;11.644;2022-11-04T07:12:58;1.27;;;1.17;;
16075;SDS011;8142;48.242;11.644;2022-11-04T07:15:24;1.13;;;1.03;;
16075;SDS011;8142;48.242;11.644;2022-11-04T07:17:50;1.80;;;1.20;;
16075;SDS011;8142;48.242;11.644;2022-11-04T07:20:15;1.70;;;1.10;;
16075;SDS011;8142;48.242;11.644;2022-11-04T07:22:41;1.80;;;1.10;;
16075;SDS011;8142;48.242;11.644;2022-11-04T07:25:07;2.53;;;1.20;;
16075;SDS011;8142;48.242;11.644;2022-11-04T07:27:34;2.53;;;1.00;;
16075;SDS011;8142;48.242;11.644;2022-11-04T07:29:59;2.00;;;1.27;;
16075;SDS011;8142;48.242;11.644;2022-11-04T07:32:25;1.33;;;1.10;;
16075;SDS011;8142;48.242;11.644;2022-11-04T07:34:51;3.17;;;1.40;;
16075;SDS011;8142;48.242;11.644;2022-11-04T07:37:17;2.13;;;1.27;;
16075;SDS011;8142;48.242;11.644;2022-11-04T07:39:43;3.53;;;1.27;;
16075;SDS011;8142;48.242;11.644;2022-11-04T07:42:09;2.63;;;1.30;;
16075;SDS011;8142;48.242;11.644;2022-11-04T07:44:35;3.47;;;1.00;;
16075;SDS011;8142;48.242;11.644;2022-11-04T07:47:00;1.93;;;1.20;;
16075;SDS011;8142;48.242;11.644;2022-11-04T07:49:26;1.20;;;1.10;;
16075;SDS011;8142;48.242;11.644;2022-11-04T07:51:52;1.47;;;1.27;;
16075;SDS011;8142;48.242;11.644;2022-11-04T07:54:18;1.70;;;1.07;;
16075;SDS011;8142;48.242;11.644;2022-11-04T07:56:44;1.90;;;1.03;;
16075;SDS011;8142;48.242;11.644;2022-11-04T07:59:09;1.53;;;1.20;;
16075;SDS011;8142;48.242;11.644;2022-11-04T08:01:35;2.70;;;1.10;;
16075;SDS011;8142;48.242;11.644;2022-11-04T08:04:01;2.93;;;1.20;;
16075;SDS011;8142;48.242;11.644;2022-11-04T08:06:29;2.97;;;1.20;;
16075;SDS011;8142;48.242;11.644;2022-11-04T08:08:56;1.77;;;1.07;;
16075;SDS011;8142;48.242;11.644;2022-11-04T08:11:23;2.60;;;1.20;;
16075;SDS011;8142;48.242;11.644;2022-11-04T08:13:52;5.00;;;1.33;;
16075;SDS011;8142;48.242;11.644;2022-11-04T08:16:20;2.93;;;1.73;;
16075;SDS011;8142;48.242;11.644;2022-11-04T08:18:47;3.10;;;1.63;;
16075;SDS011;8142;48.242;11.644;2022-11-04T08:21:15;2.67;;;1.43;;
16075;SDS011;8142;48.242;11.644;2022-11-04T08:23:41;5.17;;;1.50;;
16075;SDS011;8142;48.242;11.644;2022-11-04T08:26:08;2.77;;;1.40;;
16075;SDS011;8142;48.242;11.644;2022-11-04T08:28:36;4.50;;;1.50;;
16075;SDS011;8142;48.242;11.644;2022-11-04T08:31:07;3.30;;;1.47;;
16075;SDS011;8142;48.242;11.644;2022-11-04T08:33:35;2.50;;;1.20;;
16075;SDS011;8142;48.242;11.644;2022-11-04T08:36:06;4.90;;;1.20;;
16075;SDS011;8142;48.242;11.644;2022-11-04T08:38:34;3.30;;;1.30;;
16075;SDS011;8142;48.242;11.644;2022-11-04T08:41:01;3.20;;;1.50;;
16075;SDS011;8142;48.242;11.644;2022-11-04T08:43:28;4.90;;;1.60;;
16075;SDS011;8142;48.242;11.644;2022-11-04T08:45:54;4.17;;;1.77;;
16075;SDS011;8142;48.242;11.644;2022-11-04T08:48:21;5.80;;;1.80;;
16075;SDS011;8142;48.242;11.644;2022-11-04T08:50:48;1.93;;;1.30;;
16075;SDS011;8142;48.242;11.644;2022-11-04T08:53:14;3.67;;;1.60;;
16075;SDS011;8142;48.242;11.644;2022-11-04T08:55:40;3.53;;;1.57;;
16075;SDS011;8142;48.242;11.644;2022-11-04T08:58:06;3.57;;;1.40;;
16075;SDS011;8142;48.242;11.644;2022-11-04T09:00:32;3.70;;;1.60;;
16075;SDS011;8142;48.242;11.644;2022-11-04T09:02:58;3.70;;;1.60;;
16075;SDS011;8142;48.242;11.644;2022-11-04T09:05:24;3.33;;;1.50;;
16075;SDS011;8142;48.242;11.644;2022-11-04T09:07:50;2.63;;;1.40;;
16075;SDS011;8142;48.242;11.644;2022-11-04T09:10:17;2.40;;;1.23;;
16075;SDS011;8142;48.242;11.644;2022-11-04T09:12:43;3.17;;;1.60;;
16075;SDS011;8142;48.242;11.644;2022-11-04T09:15:09;3.03;;;1.30;;
16075;SDS011;8142;48.242;11.644;2022-11-04T09:17:36;2.73;;;1.43;;
16075;SDS011;8142;48.242;11.644;2022-11-04T09:20:02;3.73;;;1.40;;
16075;SDS011;8142;48.242;11.644;2022-11-04T09:22:29;1.73;;;1.20;;
16075;SDS011;8142;48.242;11.644;2022-11-04T09:24:56;3.87;;;1.50;;
16075;SDS011;8142;48.242;11.644;2022-11-04T09:27:22;2.50;;;1.50;;
16075;SDS011;8142;48.242;11.644;2022-11-04T09:29:48;2.67;;;1.33;;
16075;SDS011;8142;48.242;11.644;2022-11-04T09:32:14;1.97;;;1.20;;
16075;SDS011;8142;48.242;11.644;2022-11-04T09:34:40;3.17;;;1.40;;
16075;SDS011;8142;48.242;11.644;2022-11-04T09:37:06;4.10;;;1.40;;
16075;SDS011;8142;48.242;11.644;2022-11-04T09:39:32;2.33;;;1.33;;
16075;SDS011;8142;48.242;11.644;2022-11-04T09:42:06;1.60;;;1.40;;
16075;SDS011;8142;48.242;11.644;2022-11-04T09:44:56;1.80;;;1.40;;
16075;SDS011;8142;48.242;11.644;2022-11-04T09:47:35;2.80;;;1.33;;
16075;SDS011;8142;48.242;11.644;2022-11-04T09:50:05;1.37;;;1.27;;
16075;SDS011;8142;48.242;11.644;2022-11-04T09:52:40;3.97;;;1.33;;
16075;SDS011;8142;48.242;11.644;2022-11-04T09:55:14;2.57;;;1.43;;
16075;SDS011;8142;48.242;11.644;2022-11-04T09:57:46;3.00;;;1.50;;
16075;SDS011;8142;48.242;11.644;2022-11-04T10:00:18;3.00;;;1.40;;
16075;SDS011;8142;48.242;11.644;2022-11-04T10:02:53;3.23;;;1.30;;
16075;SDS011;8142;48.242;11.644;2022-11-04T10:05:41;2.93;;;1.40;;
16075;SDS011;8142;48.242;11.644;2022-11-04T10:20:07;2.57;;;1.30;;
16075;SDS011;8142;48.242;11.644;2022-11-04T10:28:18;2.23;;;1.33;;
16075;SDS011;8142;48.242;11.644;2022-11-04T10:30:54;3.53;;;1.67;;
16075;SDS011;8142;48.242;11.644;2022-11-04T10:33:22;1.43;;;1.30;;
16075;SDS011;8142;48.242;11.644;2022-11-04T10:36:07;2.97;;;1.40;;
16075;SDS011;8142;48.242;11.644;2022-11-04T10:41:19;2.20;;;1.50;;
16075;SDS011;8142;48.242;11.644;2022-11-04T10:43:55;4.20;;;1.40;;
16075;SDS011;8142;48.242;11.644;2022-11-04T10:46:34;4.20;;;1.73;;
16075;SDS011;8142;48.242;11.644;2022-11-04T10:52:03;1.40;;;1.30;;
16075;SDS011;8142;48.242;11.644;2022-11-04T10:54:33;2.97;;;1.60;;
16075;SDS011;8142;48.242;11.644;2022-11-04T10:57:07;1.53;;;1.37;;
16075;SDS011;8142;48.242;11.644;2022-11-04T10:59:41;1.40;;;1.30;;
16075;SDS011;8142;48.242;11.644;2022-11-04T11:02:14;3.30;;;1.53;;
16075;SDS011;8142;48.242;11.644;2022-11-04T11:04:40;2.00;;;1.43;;
16075;SDS011;8142;48.242;11.644;2022-11-04T11:07:09;2.40;;;1.40;;
16075;SDS011;8142;48.242;11.644;2022-11-04T11:14:37;1.77;;;1.30;;
16075;SDS011;8142;48.242;11.644;2022-11-04T11:19:53;3.40;;;1.70;;
16075;SDS011;8142;48.242;11.644;2022-11-04T11:30:53;2.60;;;1.43;;
16075;SDS011;8142;48.242;11.644;2022-11-04T11:33:26;1.87;;;1.53;;
16075;SDS011;8142;48.242;11.644;2022-11-04T11:35:58;2.30;;;1.57;;
16075;SDS011;8142;48.242;11.644;2022-11-04T11:38:29;3.13;;;1.40;;
16075;SDS011;8142;48.242;11.644;2022-11-04T11:43:32;1.63;;;1.40;;
16075;SDS011;8142;48.242;11.644;2022-11-04T11:45:59;1.30;;;1.20;;
16075;SDS011;8142;48.242;11.644;2022-11-04T11:48:27;1.50;;;1.40;;
16075;SDS011;8142;48.242;11.644;2022-11-04T11:50:54;1.77;;;1.40;;
16075;SDS011;8142;48.242;11.644;2022-11-04T11:53:24;2.00;;;1.20;;
16075;SDS011;8142;48.242;11.644;2022-11-04T11:59:03;3.23;;;1.80;;
16075;SDS011;8142;48.242;11.644;2022-11-04T12:04:18;2.20;;;1.77;;
16075;SDS011;8142;48.242;11.644;2022-11-04T12:17:24;1.53;;;1.43;;
16075;SDS011;8142;48.242;11.644;2022-11-04T12:20:03;1.93;;;1.50;;
16075;SDS011;8142;48.242;11.644;2022-11-04T12:23:21;2.70;;;1.83;;
16075;SDS011;8142;48.242;11.644;2022-11-04T12:25:57;2.03;;;1.60;;
16075;SDS011;8142;48.242;11.644;2022-11-04T12:28:40;3.17;;;2.10;;
16075;SDS011;8142;48.242;11.644;2022-11-04T12:45:06;1.60;;;1.50;;
16075;SDS011;8142;48.242;11.644;2022-11-04T12:58:37;2.00;;;1.70;;
16075;SDS011;8142;48.242;11.644;2022-11-04T13:01:31;3.23;;;1.70;;
16075;SDS011;8142;48.242;11.644;2022-11-04T13:06:41;2.40;;;1.30;;
16075;SDS011;8142;48.242;11.644;2022-11-04T13:09:15;1.97;;;1.50;;
16075;SDS011;8142;48.242;11.644;2022-11-04T13:16:54;1.77;;;1.50;;
16075;SDS011;8142;48.242;11.644;2022-11-04T13:19:36;1.50;;;1.40;;
16075;SDS011;8142;48.242;11.644;2022-11-04T13:22:10;1.93;;;1.40;;
16075;SDS011;8142;48.242;11.644;2022-11-04T13:24:56;1.83;;;1.20;;
16075;SDS011;8142;48.242;11.644;2022-11-04T13:27:38;1.60;;;1.50;;
16075;SDS011;8142;48.242;11.644;2022-11-04T13:35:46;2.47;;;1.40;;
16075;SDS011;8142;48.242;11.644;2022-11-04T13:44:25;3.27;;;1.57;;
16075;SDS011;8142;48.242;11.644;2022-11-04T13:46:57;1.90;;;1.20;;
16075;SDS011;8142;48.242;11.644;2022-11-04T13:54:42;1.50;;;1.23;;
16075;SDS011;8142;48.242;11.644;2022-11-04T13:57:25;1.63;;;1.30;;
16075;SDS011;8142;48.242;11.644;2022-11-04T14:02:41;3.37;;;1.10;;
16075;SDS011;8142;48.242;11.644;2022-11-04T14:10:41;1.97;;;1.00;;
16075;SDS011;8142;48.242;11.644;2022-11-04T14:16:36;1.53;;;0.90;;
16075;SDS011;8142;48.242;11.644;2022-11-04T14:22:11;2.57;;;1.47;;
16075;SDS011;8142;48.242;11.644;2022-11-04T14:24:43;1.37;;;1.27;;
16075;SDS011;8142;48.242;11.644;2022-11-04T14:27:25;1.90;;;1.30;;
16075;SDS011;8142;48.242;11.644;2022-11-04T14:30:03;2.37;;;1.50;;
16075;SDS011;8142;48.242;11.644;2022-11-04T14:32:31;3.67;;;1.67;;
16075;SDS011;8142;48.242;11.644;2022-11-04T14:35:03;5.13;;;2.50;;
16075;SDS011;8142;48.242;11.644;2022-11-04T14:37:34;1.60;;;1.50;;
16075;SDS011;8142;48.242;11.644;2022-11-04T14:40:03;1.53;;;1.33;;
16075;SDS011;8142;48.242;11.644;2022-11-04T14:42:47;2.33;;;1.10;;
16075;SDS011;8142;48.242;11.644;2022-11-04T14:45:19;4.30;;;1.50;;
16075;SDS011;8142;48.242;11.644;2022-11-04T14:47:52;2.00;;;1.40;;
16075;SDS011;8142;48.242;11.644;2022-11-04T14:50:26;1.60;;;1.50;;
16075;SDS011;8142;48.242;11.644;2022-11-04T14:52:56;2.33;;;1.40;;
16075;SDS011;8142;48.242;11.644;2022-11-04T14:55:27;1.47;;;1.30;;
16075;SDS011;8142;48.242;11.644;2022-11-04T14:58:12;2.47;;;1.50;;
16075;SDS011;8142;48.242;11.644;2022-11-04T15:03:25;1.63;;;1.33;;
16075;SDS011;8142;48.242;11.644;2022-11-04T15:05:53;1.60;;;1.20;;
16075;SDS011;8142;48.242;11.644;2022-11-04T15:13:44;1.53;;;1.33;;
16075;SDS011;8142;48.242;11.644;2022-11-04T15:16:23;1.77;;;1.27;;
16075;SDS011;8142;48.242;11.644;2022-11-04T15:18:52;2.17;;;1.40;;
16075;SDS011;8142;48.242;11.644;2022-11-04T15:21:19;1.37;;;1.27;;
16075;SDS011;8142;48.242;11.644;2022-11-04T15:23:46;2.87;;;1.50;;
16075;SDS011;8142;48.242;11.644;2022-11-04T15:26:18;2.40;;;1.60;;
16075;SDS011;8142;48.242;11.644;2022-11-04T15:28:48;3.17;;;1.70;;
16075;SDS011;8142;48.242;11.644;2022-11-04T15:31:17;1.80;;;1.60;;
16075;SDS011;8142;48.242;11.644;2022-11-04T15:33:55;1.83;;;1.40;;
16075;SDS011;8142;48.242;11.644;2022-11-04T15:36:28;2.60;;;2.10;;
16075;SDS011;8142;48.242;11.644;2022-11-04T15:39:04;3.23;;;1.73;;
16075;SDS011;8142;48.242;11.644;2022-11-04T15:41:40;3.07;;;1.60;;
16075;SDS011;8142;48.242;11.644;2022-11-04T15:44:33;3.90;;;1.70;;
16075;SDS011;8142;48.242;11.644;2022-11-04T15:49:42;3.97;;;2.50;;
16075;SDS011;8142;48.242;11.644;2022-11-04T15:52:15;3.03;;;2.10;;
16075;SDS011;8142;48.242;11.644;2022-11-04T15:54:45;3.73;;;2.00;;
16075;SDS011;8142;48.242;11.644;2022-11-04T15:57:20;2.73;;;1.80;;
16075;SDS011;8142;48.242;11.644;2022-11-04T16:05:18;2.63;;;1.70;;
16075;SDS011;8142;48.242;11.644;2022-11-04T16:07:48;2.70;;;1.70;;
16075;SDS011;8142;48.242;11.644;2022-11-04T16:10:27;2.27;;;1.70;;
16075;SDS011;8142;48.242;11.644;2022-11-04T16:12:58;2.23;;;2.03;;
16075;SDS011;8142;48.242;11.644;2022-11-04T16:15:47;1.90;;;1.67;;
16075;SDS011;8142;48.242;11.644;2022-11-04T16:18:38;2.20;;;1.70;;
16075;SDS011;8142;48.242;11.644;2022-11-04T16:21:10;3.47;;;2.10;;
16075;SDS011;8142;48.242;11.644;2022-11-04T16:23:53;2.10;;;1.90;;
16075;SDS011;8142;48.242;11.644;2022-11-04T16:26:26;3.73;;;2.20;;
16075;SDS011;8142;48.242;11.644;2022-11-04T16:28:54;3.40;;;2.23;;
16075;SDS011;8142;48.242;11.644;2022-11-04T16:31:32;2.23;;;2.03;;
16075;SDS011;8142;48.242;11.644;2022-11-04T16:33:59;5.13;;;2.27;;
16075;SDS011;8142;48.242;11.644;2022-11-04T16:36:26;1.70;;;1.60;;
16075;SDS011;8142;48.242;11.644;2022-11-04T16:41:22;3.60;;;2.00;;
16075;SDS011;8142;48.242;11.644;2022-11-04T16:43:49;2.47;;;2.10;;
16075;SDS011;8142;48.242;11.644;2022-11-04T16:46:15;3.00;;;1.87;;
16075;SDS011;8142;48.242;11.644;2022-11-04T16:48:44;2.27;;;1.60;;
16075;SDS011;8142;48.242;11.644;2022-11-04T16:51:17;2.63;;;1.90;;
16075;SDS011;8142;48.242;11.644;2022-11-04T16:53:48;4.43;;;1.90;;
16075;SDS011;8142;48.242;11.644;2022-11-04T16:56:18;2.27;;;1.80;;
16075;SDS011;8142;48.242;11.644;2022-11-04T16:58:46;3.27;;;2.00;;
16075;SDS011;8142;48.242;11.644;2022-11-04T17:01:12;3.40;;;2.43;;
16075;SDS011;8142;48.242;11.644;2022-11-04T17:03:40;4.43;;;3.37;;
16075;SDS011;8142;48.242;11.644;2022-11-04T17:06:10;3.97;;;2.90;;
16075;SDS011;8142;48.242;11.644;2022-11-04T17:08:37;3.10;;;2.47;;
16075;SDS011;8142;48.242;11.644;2022-11-04T17:11:04;3.70;;;2.23;;
16075;SDS011;8142;48.242;11.644;2022-11-04T17:13:31;3.53;;;2.53;;
16075;SDS011;8142;48.242;11.644;2022-11-04T17:15:57;5.17;;;3.73;;
16075;SDS011;8142;48.242;11.644;2022-11-04T17:18:23;3.20;;;2.83;;
16075;SDS011;8142;48.242;11.644;2022-11-04T17:20:50;2.17;;;1.97;;
16075;SDS011;8142;48.242;11.644;2022-11-04T17:23:18;4.33;;;2.03;;
16075;SDS011;8142;48.242;11.644;2022-11-04T17:25:45;2.30;;;2.03;;
16075;SDS011;8142;48.242;11.644;2022-11-04T17:28:11;2.60;;;1.73;;
16075;SDS011;8142;48.242;11.644;2022-11-04T17:30:38;2.40;;;1.53;;
16075;SDS011;8142;48.242;11.644;2022-11-04T17:33:14;3.87;;;1.80;;
16075;SDS011;8142;48.242;11.644;2022-11-04T17:35:42;2.03;;;1.87;;
16075;SDS011;8142;48.242;11.644;2022-11-04T17:38:12;3.27;;;2.23;;
16075;SDS011;8142;48.242;11.644;2022-11-04T17:40:38;2.77;;;2.30;;
16075;SDS011;8142;48.242;11.644;2022-11-04T17:43:24;3.87;;;2.03;;
16075;SDS011;8142;48.242;11.644;2022-11-04T17:46:09;2.47;;;2.07;;
16075;SDS011;8142;48.242;11.644;2022-11-04T17:48:53;3.83;;;2.70;;
16075;SDS011;8142;48.242;11.644;2022-11-04T17:51:19;3.40;;;2.33;;
16075;SDS011;8142;48.242;11.644;2022-11-04T17:53:46;3.20;;;2.43;;
16075;SDS011;8142;48.242;11.644;2022-11-04T17:56:16;3.40;;;2.80;;
16075;SDS011;8142;48.242;11.644;2022-11-04T17:58:44;4.10;;;3.70;;
16075;SDS011;8142;48.242;11.644;2022-11-04T18:01:11;5.13;;;4.20;;
16075;SDS011;8142;48.242;11.644;2022-11-04T18:03:38;5.90;;;5.30;;
16075;SDS011;8142;48.242;11.644;2022-11-04T18:06:04;5.23;;;4.60;;